sensor_id;sensor_type;location;lat;lon;timestamp;temperature;humidity
5697;DHT22;2873;50.966;7.210;2022-08-19T00:01:53;20.90;99.90
5697;DHT22;2873;50.966;7.210;2022-08-19T00:04:25;21.10;99.90
5697;DHT22;2873;50.966;7.210;2022-08-19T00:06:51;20.80;99.90
5697;DHT22;2873;50.966;7.210;2022-08-19T00:09:19;20.70;99.90
5697;DHT22;2873;50.966;7.210;2022-08-19T00:11:45;20.70;99.90
5697;DHT22;2873;50.966;7.210;2022-08-19T00:14:13;20.80;99.90
5697;DHT22;2873;50.966;7.210;2022-08-19T00:16:41;20.70;99.90
5697;DHT22;2873;50.966;7.210;2022-08-19T00:19:08;20.60;99.90
5697;DHT22;2873;50.966;7.210;2022-08-19T00:21:34;20.70;99.90
5697;DHT22;2873;50.966;7.210;2022-08-19T00:24:04;20.60;99.90
5697;DHT22;2873;50.966;7.210;2022-08-19T00:26:29;20.50;99.90
5697;DHT22;2873;50.966;7.210;2022-08-19T00:28:55;20.50;99.90
5697;DHT22;2873;50.966;7.210;2022-08-19T00:31:22;20.50;99.90
5697;DHT22;2873;50.966;7.210;2022-08-19T00:33:47;20.40;99.90
5697;DHT22;2873;50.966;7.210;2022-08-19T00:36:16;20.40;99.90
5697;DHT22;2873;50.966;7.210;2022-08-19T00:38:42;20.40;99.90
5697;DHT22;2873;50.966;7.210;2022-08-19T00:41:10;20.40;99.90
5697;DHT22;2873;50.966;7.210;2022-08-19T00:43:35;20.40;99.90
5697;DHT22;2873;50.966;7.210;2022-08-19T00:46:01;20.40;99.90
5697;DHT22;2873;50.966;7.210;2022-08-19T00:48:30;20.50;99.90
5697;DHT22;2873;50.966;7.210;2022-08-19T00:50:57;20.40;99.90
5697;DHT22;2873;50.966;7.210;2022-08-19T00:53:26;20.30;99.90
5697;DHT22;2873;50.966;7.210;2022-08-19T00:55:56;20.30;99.90
5697;DHT22;2873;50.966;7.210;2022-08-19T00:58:28;20.40;99.90
5697;DHT22;2873;50.966;7.210;2022-08-19T01:00:54;20.20;99.90
5697;DHT22;2873;50.966;7.210;2022-08-19T01:03:21;20.20;99.90
5697;DHT22;2873;50.966;7.210;2022-08-19T01:05:49;20.30;99.90
5697;DHT22;2873;50.966;7.210;2022-08-19T01:08:17;20.30;99.90
5697;DHT22;2873;50.966;7.210;2022-08-19T01:10:46;20.30;99.90
5697;DHT22;2873;50.966;7.210;2022-08-19T01:13:15;20.10;99.90
5697;DHT22;2873;50.966;7.210;2022-08-19T01:15:55;20.00;99.90
5697;DHT22;2873;50.966;7.210;2022-08-19T01:18:22;20.00;99.90
5697;DHT22;2873;50.966;7.210;2022-08-19T01:20:48;20.10;99.90
5697;DHT22;2873;50.966;7.210;2022-08-19T01:23:15;20.00;99.90
5697;DHT22;2873;50.966;7.210;2022-08-19T01:25:45;20.10;99.90
5697;DHT22;2873;50.966;7.210;2022-08-19T01:28:23;20.00;99.90
5697;DHT22;2873;50.966;7.210;2022-08-19T01:30:50;20.00;99.90
5697;DHT22;2873;50.966;7.210;2022-08-19T01:33:16;19.90;99.90
5697;DHT22;2873;50.966;7.210;2022-08-19T01:35:42;19.90;99.90
5697;DHT22;2873;50.966;7.210;2022-08-19T01:38:10;19.90;99.90
5697;DHT22;2873;50.966;7.210;2022-08-19T01:40:43;19.80;99.90
5697;DHT22;2873;50.966;7.210;2022-08-19T01:43:09;19.80;99.90
5697;DHT22;2873;50.966;7.210;2022-08-19T01:45:35;19.70;99.90
5697;DHT22;2873;50.966;7.210;2022-08-19T01:48:02;19.70;99.90
5697;DHT22;2873;50.966;7.210;2022-08-19T01:50:31;19.70;99.90
5697;DHT22;2873;50.966;7.210;2022-08-19T01:52:56;19.80;99.90
5697;DHT22;2873;50.966;7.210;2022-08-19T01:55:22;19.80;99.90
5697;DHT22;2873;50.966;7.210;2022-08-19T01:57:53;19.70;99.90
5697;DHT22;2873;50.966;7.210;2022-08-19T02:00:22;19.80;99.90
5697;DHT22;2873;50.966;7.210;2022-08-19T02:02:48;19.70;99.90
5697;DHT22;2873;50.966;7.210;2022-08-19T02:05:14;19.80;99.90
5697;DHT22;2873;50.966;7.210;2022-08-19T02:07:43;19.60;99.90
5697;DHT22;2873;50.966;7.210;2022-08-19T02:10:14;19.60;99.90
5697;DHT22;2873;50.966;7.210;2022-08-19T02:12:40;19.60;99.90
5697;DHT22;2873;50.966;7.210;2022-08-19T02:15:06;19.60;99.90
5697;DHT22;2873;50.966;7.210;2022-08-19T02:17:32;19.40;99.90
5697;DHT22;2873;50.966;7.210;2022-08-19T02:19:58;19.40;99.90
5697;DHT22;2873;50.966;7.210;2022-08-19T02:22:24;19.30;99.90
5697;DHT22;2873;50.966;7.210;2022-08-19T02:24:54;19.30;99.90
5697;DHT22;2873;50.966;7.210;2022-08-19T02:27:20;19.30;99.90
5697;DHT22;2873;50.966;7.210;2022-08-19T02:29:47;19.30;99.90
5697;DHT22;2873;50.966;7.210;2022-08-19T02:32:14;19.30;99.90
5697;DHT22;2873;50.966;7.210;2022-08-19T02:34:40;19.50;99.90
5697;DHT22;2873;50.966;7.210;2022-08-19T02:37:06;19.40;99.90
5697;DHT22;2873;50.966;7.210;2022-08-19T02:39:52;19.30;99.90
5697;DHT22;2873;50.966;7.210;2022-08-19T02:42:17;19.40;99.90
5697;DHT22;2873;50.966;7.210;2022-08-19T02:44:43;19.10;99.90
5697;DHT22;2873;50.966;7.210;2022-08-19T02:47:09;19.10;99.90
5697;DHT22;2873;50.966;7.210;2022-08-19T02:49:35;19.10;99.90
5697;DHT22;2873;50.966;7.210;2022-08-19T02:52:02;19.20;99.90
5697;DHT22;2873;50.966;7.210;2022-08-19T02:54:28;19.20;99.90
5697;DHT22;2873;50.966;7.210;2022-08-19T02:56:54;19.20;99.90
5697;DHT22;2873;50.966;7.210;2022-08-19T02:59:19;19.30;99.90
5697;DHT22;2873;50.966;7.210;2022-08-19T03:01:45;19.20;99.90
5697;DHT22;2873;50.966;7.210;2022-08-19T03:04:13;19.10;99.90
5697;DHT22;2873;50.966;7.210;2022-08-19T03:06:41;19.20;99.90
5697;DHT22;2873;50.966;7.210;2022-08-19T03:09:07;19.50;99.90
5697;DHT22;2873;50.966;7.210;2022-08-19T03:11:34;19.20;99.90
5697;DHT22;2873;50.966;7.210;2022-08-19T03:14:00;19.10;99.90
5697;DHT22;2873;50.966;7.210;2022-08-19T03:16:29;19.20;99.90
5697;DHT22;2873;50.966;7.210;2022-08-19T03:18:56;19.20;99.90
5697;DHT22;2873;50.966;7.210;2022-08-19T03:21:26;19.20;99.90
5697;DHT22;2873;50.966;7.210;2022-08-19T03:23:57;19.00;99.90
5697;DHT22;2873;50.966;7.210;2022-08-19T03:26:23;19.10;99.90
5697;DHT22;2873;50.966;7.210;2022-08-19T03:28:48;19.10;99.90
5697;DHT22;2873;50.966;7.210;2022-08-19T03:31:20;19.10;99.90
5697;DHT22;2873;50.966;7.210;2022-08-19T03:33:48;19.20;99.90
5697;DHT22;2873;50.966;7.210;2022-08-19T03:36:19;19.10;99.90
5697;DHT22;2873;50.966;7.210;2022-08-19T03:38:53;19.00;99.90
5697;DHT22;2873;50.966;7.210;2022-08-19T03:41:31;18.90;99.90
5697;DHT22;2873;50.966;7.210;2022-08-19T03:43:57;18.90;99.90
5697;DHT22;2873;50.966;7.210;2022-08-19T03:46:26;19.00;99.90
5697;DHT22;2873;50.966;7.210;2022-08-19T03:48:57;18.90;99.90
5697;DHT22;2873;50.966;7.210;2022-08-19T03:51:28;19.00;99.90
5697;DHT22;2873;50.966;7.210;2022-08-19T03:53:56;19.00;99.90
5697;DHT22;2873;50.966;7.210;2022-08-19T03:56:22;19.00;99.90
5697;DHT22;2873;50.966;7.210;2022-08-19T03:58:48;18.90;99.90
5697;DHT22;2873;50.966;7.210;2022-08-19T04:01:18;19.00;99.90
5697;DHT22;2873;50.966;7.210;2022-08-19T04:03:45;19.00;99.90
5697;DHT22;2873;50.966;7.210;2022-08-19T04:06:20;18.90;99.90
5697;DHT22;2873;50.966;7.210;2022-08-19T04:08:48;18.90;99.90
5697;DHT22;2873;50.966;7.210;2022-08-19T04:11:18;18.80;99.90
5697;DHT22;2873;50.966;7.210;2022-08-19T04:13:45;18.90;99.90
5697;DHT22;2873;50.966;7.210;2022-08-19T04:16:11;19.00;99.90
5697;DHT22;2873;50.966;7.210;2022-08-19T04:18:39;18.90;99.90
5697;DHT22;2873;50.966;7.210;2022-08-19T04:21:07;18.90;99.90
5697;DHT22;2873;50.966;7.210;2022-08-19T04:23:33;19.00;99.90
5697;DHT22;2873;50.966;7.210;2022-08-19T04:25:59;18.90;99.90
5697;DHT22;2873;50.966;7.210;2022-08-19T04:28:25;19.00;99.90
5697;DHT22;2873;50.966;7.210;2022-08-19T04:30:52;19.10;99.90
5697;DHT22;2873;50.966;7.210;2022-08-19T04:33:24;18.90;99.90
5697;DHT22;2873;50.966;7.210;2022-08-19T04:35:52;19.00;99.90
5697;DHT22;2873;50.966;7.210;2022-08-19T04:38:20;19.00;99.90
5697;DHT22;2873;50.966;7.210;2022-08-19T04:40:50;19.30;99.90
5697;DHT22;2873;50.966;7.210;2022-08-19T04:43:37;19.00;99.90
5697;DHT22;2873;50.966;7.210;2022-08-19T04:46:10;19.00;99.90
5697;DHT22;2873;50.966;7.210;2022-08-19T04:48:37;19.00;99.90
5697;DHT22;2873;50.966;7.210;2022-08-19T04:51:07;19.20;99.90
5697;DHT22;2873;50.966;7.210;2022-08-19T04:53:35;19.20;99.90
5697;DHT22;2873;50.966;7.210;2022-08-19T04:56:05;19.10;99.90
5697;DHT22;2873;50.966;7.210;2022-08-19T04:58:33;19.10;99.90
5697;DHT22;2873;50.966;7.210;2022-08-19T05:00:59;19.10;99.90
5697;DHT22;2873;50.966;7.210;2022-08-19T05:03:27;19.10;99.90
5697;DHT22;2873;50.966;7.210;2022-08-19T05:05:58;19.10;99.90
5697;DHT22;2873;50.966;7.210;2022-08-19T05:08:28;19.20;99.90
5697;DHT22;2873;50.966;7.210;2022-08-19T05:10:55;19.20;99.90
5697;DHT22;2873;50.966;7.210;2022-08-19T05:13:22;19.20;99.90
5697;DHT22;2873;50.966;7.210;2022-08-19T05:15:57;19.20;99.90
5697;DHT22;2873;50.966;7.210;2022-08-19T05:18:23;19.20;99.90
5697;DHT22;2873;50.966;7.210;2022-08-19T05:21:09;19.30;99.90
5697;DHT22;2873;50.966;7.210;2022-08-19T05:23:54;19.30;99.90
5697;DHT22;2873;50.966;7.210;2022-08-19T05:26:19;19.30;99.90
5697;DHT22;2873;50.966;7.210;2022-08-19T05:28:45;19.40;99.90
5697;DHT22;2873;50.966;7.210;2022-08-19T05:31:10;19.40;99.90
5697;DHT22;2873;50.966;7.210;2022-08-19T05:33:36;19.50;99.90
5697;DHT22;2873;50.966;7.210;2022-08-19T05:36:02;19.40;99.90
5697;DHT22;2873;50.966;7.210;2022-08-19T05:38:28;19.20;99.90
5697;DHT22;2873;50.966;7.210;2022-08-19T05:40:55;19.10;99.90
5697;DHT22;2873;50.966;7.210;2022-08-19T05:43:20;19.20;99.90
5697;DHT22;2873;50.966;7.210;2022-08-19T05:45:46;19.40;99.90
5697;DHT22;2873;50.966;7.210;2022-08-19T05:48:12;19.40;99.90
5697;DHT22;2873;50.966;7.210;2022-08-19T05:50:39;19.20;99.90
5697;DHT22;2873;50.966;7.210;2022-08-19T05:53:05;19.50;99.90
5697;DHT22;2873;50.966;7.210;2022-08-19T05:55:31;19.40;99.90
5697;DHT22;2873;50.966;7.210;2022-08-19T05:57:57;19.50;99.90
5697;DHT22;2873;50.966;7.210;2022-08-19T06:00:23;19.40;99.90
5697;DHT22;2873;50.966;7.210;2022-08-19T06:02:48;19.40;99.90
5697;DHT22;2873;50.966;7.210;2022-08-19T06:05:14;19.60;99.90
5697;DHT22;2873;50.966;7.210;2022-08-19T06:07:40;19.50;99.90
5697;DHT22;2873;50.966;7.210;2022-08-19T06:10:08;19.60;99.90
5697;DHT22;2873;50.966;7.210;2022-08-19T06:12:35;19.50;99.90
5697;DHT22;2873;50.966;7.210;2022-08-19T06:15:07;19.50;99.90
5697;DHT22;2873;50.966;7.210;2022-08-19T06:17:33;19.50;99.90
5697;DHT22;2873;50.966;7.210;2022-08-19T06:20:01;19.50;99.90
5697;DHT22;2873;50.966;7.210;2022-08-19T06:22:27;19.50;99.90
5697;DHT22;2873;50.966;7.210;2022-08-19T06:24:53;19.60;99.90
5697;DHT22;2873;50.966;7.210;2022-08-19T06:27:19;19.50;99.90
5697;DHT22;2873;50.966;7.210;2022-08-19T06:29:45;19.60;99.90
5697;DHT22;2873;50.966;7.210;2022-08-19T06:32:13;19.80;99.90
5697;DHT22;2873;50.966;7.210;2022-08-19T06:34:40;19.80;99.90
5697;DHT22;2873;50.966;7.210;2022-08-19T06:37:07;19.80;99.90
5697;DHT22;2873;50.966;7.210;2022-08-19T06:39:35;20.00;99.90
5697;DHT22;2873;50.966;7.210;2022-08-19T06:42:03;19.90;99.90
5697;DHT22;2873;50.966;7.210;2022-08-19T06:44:34;20.10;99.90
5697;DHT22;2873;50.966;7.210;2022-08-19T06:47:03;20.30;99.90
5697;DHT22;2873;50.966;7.210;2022-08-19T06:49:29;20.30;99.90
5697;DHT22;2873;50.966;7.210;2022-08-19T06:51:56;20.40;99.90
5697;DHT22;2873;50.966;7.210;2022-08-19T06:54:24;20.50;99.90
5697;DHT22;2873;50.966;7.210;2022-08-19T06:56:51;20.60;99.90
5697;DHT22;2873;50.966;7.210;2022-08-19T06:59:20;20.70;99.90
5697;DHT22;2873;50.966;7.210;2022-08-19T07:01:51;20.80;99.90
5697;DHT22;2873;50.966;7.210;2022-08-19T07:04:23;20.90;99.90
5697;DHT22;2873;50.966;7.210;2022-08-19T07:06:50;21.00;99.90
5697;DHT22;2873;50.966;7.210;2022-08-19T07:09:21;21.00;99.90
5697;DHT22;2873;50.966;7.210;2022-08-19T07:11:51;21.10;99.90
5697;DHT22;2873;50.966;7.210;2022-08-19T07:14:23;21.40;99.90
5697;DHT22;2873;50.966;7.210;2022-08-19T07:16:51;21.20;99.90
5697;DHT22;2873;50.966;7.210;2022-08-19T07:19:21;21.40;99.90
5697;DHT22;2873;50.966;7.210;2022-08-19T07:21:50;21.50;99.90
5697;DHT22;2873;50.966;7.210;2022-08-19T07:27:43;21.50;99.90
5697;DHT22;2873;50.966;7.210;2022-08-19T07:30:10;21.70;99.90
5697;DHT22;2873;50.966;7.210;2022-08-19T07:32:43;21.70;99.90
5697;DHT22;2873;50.966;7.210;2022-08-19T07:35:30;21.60;99.90
5697;DHT22;2873;50.966;7.210;2022-08-19T07:37:57;21.80;99.90
5697;DHT22;2873;50.966;7.210;2022-08-19T07:40:23;21.90;99.90
5697;DHT22;2873;50.966;7.210;2022-08-19T07:42:51;21.90;99.90
5697;DHT22;2873;50.966;7.210;2022-08-19T07:45:17;22.10;99.90
5697;DHT22;2873;50.966;7.210;2022-08-19T07:47:43;22.20;99.90
5697;DHT22;2873;50.966;7.210;2022-08-19T07:50:09;22.40;99.90
5697;DHT22;2873;50.966;7.210;2022-08-19T07:52:40;22.30;99.90
5697;DHT22;2873;50.966;7.210;2022-08-19T07:55:07;22.40;99.90
5697;DHT22;2873;50.966;7.210;2022-08-19T07:57:33;22.30;99.90
5697;DHT22;2873;50.966;7.210;2022-08-19T07:59:59;22.40;99.90
5697;DHT22;2873;50.966;7.210;2022-08-19T08:02:25;22.50;99.90
5697;DHT22;2873;50.966;7.210;2022-08-19T08:04:50;22.50;99.90
5697;DHT22;2873;50.966;7.210;2022-08-19T08:07:35;22.50;99.90
5697;DHT22;2873;50.966;7.210;2022-08-19T08:10:19;22.70;99.90
5697;DHT22;2873;50.966;7.210;2022-08-19T08:12:45;22.80;99.90
5697;DHT22;2873;50.966;7.210;2022-08-19T08:15:14;22.90;99.90
5697;DHT22;2873;50.966;7.210;2022-08-19T08:17:44;23.20;99.90
5697;DHT22;2873;50.966;7.210;2022-08-19T08:20:12;23.00;99.90
5697;DHT22;2873;50.966;7.210;2022-08-19T08:22:43;22.90;99.90
5697;DHT22;2873;50.966;7.210;2022-08-19T08:25:27;23.00;99.90
5697;DHT22;2873;50.966;7.210;2022-08-19T08:27:53;23.10;99.90
5697;DHT22;2873;50.966;7.210;2022-08-19T08:30:27;23.00;99.90
5697;DHT22;2873;50.966;7.210;2022-08-19T08:32:53;23.00;99.90
5697;DHT22;2873;50.966;7.210;2022-08-19T08:35:21;23.20;99.90
5697;DHT22;2873;50.966;7.210;2022-08-19T08:37:52;23.30;99.90
5697;DHT22;2873;50.966;7.210;2022-08-19T08:40:57;23.50;99.90
5697;DHT22;2873;50.966;7.210;2022-08-19T08:43:35;23.50;99.90
5697;DHT22;2873;50.966;7.210;2022-08-19T08:46:13;23.70;99.90
5697;DHT22;2873;50.966;7.210;2022-08-19T08:51:37;23.90;99.90
5697;DHT22;2873;50.966;7.210;2022-08-19T08:54:10;24.00;99.90
5697;DHT22;2873;50.966;7.210;2022-08-19T08:56:57;24.00;99.90
5697;DHT22;2873;50.966;7.210;2022-08-19T08:59:49;24.10;99.90
5697;DHT22;2873;50.966;7.210;2022-08-19T09:02:41;24.20;99.90
5697;DHT22;2873;50.966;7.210;2022-08-19T09:05:06;24.30;99.90
5697;DHT22;2873;50.966;7.210;2022-08-19T09:10:14;24.30;99.90
5697;DHT22;2873;50.966;7.210;2022-08-19T09:15:29;24.50;99.90
5697;DHT22;2873;50.966;7.210;2022-08-19T09:18:02;24.30;99.90
5697;DHT22;2873;50.966;7.210;2022-08-19T09:20:34;24.30;99.90
5697;DHT22;2873;50.966;7.210;2022-08-19T09:23:00;24.30;99.90
5697;DHT22;2873;50.966;7.210;2022-08-19T09:25:28;24.40;99.90
5697;DHT22;2873;50.966;7.210;2022-08-19T09:27:54;24.30;99.90
5697;DHT22;2873;50.966;7.210;2022-08-19T09:30:32;24.50;99.90
5697;DHT22;2873;50.966;7.210;2022-08-19T09:32:58;24.60;99.90
5697;DHT22;2873;50.966;7.210;2022-08-19T09:35:27;24.60;99.90
5697;DHT22;2873;50.966;7.210;2022-08-19T09:37:55;24.60;99.90
5697;DHT22;2873;50.966;7.210;2022-08-19T09:40:22;24.60;99.90
5697;DHT22;2873;50.966;7.210;2022-08-19T09:42:48;24.80;99.90
5697;DHT22;2873;50.966;7.210;2022-08-19T09:45:14;24.90;99.90
5697;DHT22;2873;50.966;7.210;2022-08-19T09:47:41;25.00;99.90
5697;DHT22;2873;50.966;7.210;2022-08-19T09:50:08;25.10;99.90
5697;DHT22;2873;50.966;7.210;2022-08-19T09:52:34;25.20;99.90
5697;DHT22;2873;50.966;7.210;2022-08-19T09:55:03;25.40;99.90
5697;DHT22;2873;50.966;7.210;2022-08-19T09:57:29;25.40;99.90
5697;DHT22;2873;50.966;7.210;2022-08-19T09:59:54;25.50;99.90
5697;DHT22;2873;50.966;7.210;2022-08-19T10:02:20;25.60;99.90
5697;DHT22;2873;50.966;7.210;2022-08-19T10:04:45;25.70;99.90
5697;DHT22;2873;50.966;7.210;2022-08-19T10:07:30;25.80;99.90
5697;DHT22;2873;50.966;7.210;2022-08-19T10:09:55;26.00;99.90
5697;DHT22;2873;50.966;7.210;2022-08-19T10:12:21;26.00;99.90
5697;DHT22;2873;50.966;7.210;2022-08-19T10:14:48;26.20;99.90
5697;DHT22;2873;50.966;7.210;2022-08-19T10:17:13;26.30;99.90
5697;DHT22;2873;50.966;7.210;2022-08-19T10:19:40;26.30;99.90
5697;DHT22;2873;50.966;7.210;2022-08-19T10:22:06;26.30;99.90
5697;DHT22;2873;50.966;7.210;2022-08-19T10:24:33;26.40;99.90
5697;DHT22;2873;50.966;7.210;2022-08-19T10:27:00;26.50;99.90
5697;DHT22;2873;50.966;7.210;2022-08-19T10:29:29;26.40;99.90
5697;DHT22;2873;50.966;7.210;2022-08-19T10:31:55;26.40;99.90
5697;DHT22;2873;50.966;7.210;2022-08-19T10:34:22;26.50;99.90
5697;DHT22;2873;50.966;7.210;2022-08-19T10:36:48;26.60;99.90
5697;DHT22;2873;50.966;7.210;2022-08-19T10:39:13;26.60;99.90
5697;DHT22;2873;50.966;7.210;2022-08-19T10:41:39;26.60;99.90
5697;DHT22;2873;50.966;7.210;2022-08-19T10:44:09;26.70;99.90
5697;DHT22;2873;50.966;7.210;2022-08-19T10:46:42;26.70;99.90
5697;DHT22;2873;50.966;7.210;2022-08-19T10:49:12;26.70;99.90
5697;DHT22;2873;50.966;7.210;2022-08-19T10:51:39;26.80;99.90
5697;DHT22;2873;50.966;7.210;2022-08-19T10:54:24;26.90;99.90
5697;DHT22;2873;50.966;7.210;2022-08-19T10:57:10;27.00;99.90
5697;DHT22;2873;50.966;7.210;2022-08-19T10:59:36;27.10;99.90
5697;DHT22;2873;50.966;7.210;2022-08-19T11:02:04;27.10;99.90
5697;DHT22;2873;50.966;7.210;2022-08-19T11:04:30;27.10;99.90
5697;DHT22;2873;50.966;7.210;2022-08-19T11:06:57;27.30;99.90
5697;DHT22;2873;50.966;7.210;2022-08-19T11:09:24;27.10;99.90
5697;DHT22;2873;50.966;7.210;2022-08-19T11:11:54;27.20;99.90
5697;DHT22;2873;50.966;7.210;2022-08-19T11:14:22;27.30;99.90
5697;DHT22;2873;50.966;7.210;2022-08-19T11:16:51;27.40;99.90
5697;DHT22;2873;50.966;7.210;2022-08-19T11:19:18;27.40;99.90
5697;DHT22;2873;50.966;7.210;2022-08-19T11:21:47;27.40;99.90
5697;DHT22;2873;50.966;7.210;2022-08-19T11:24:22;27.30;99.90
5697;DHT22;2873;50.966;7.210;2022-08-19T11:26:50;27.40;99.90
5697;DHT22;2873;50.966;7.210;2022-08-19T11:29:18;27.40;99.90
5697;DHT22;2873;50.966;7.210;2022-08-19T11:31:48;27.50;99.90
5697;DHT22;2873;50.966;7.210;2022-08-19T11:34:18;27.50;99.90
5697;DHT22;2873;50.966;7.210;2022-08-19T11:36:46;27.60;99.90
5697;DHT22;2873;50.966;7.210;2022-08-19T11:39:15;27.70;99.90
5697;DHT22;2873;50.966;7.210;2022-08-19T11:41:41;27.60;99.90
5697;DHT22;2873;50.966;7.210;2022-08-19T11:44:07;27.70;99.90
5697;DHT22;2873;50.966;7.210;2022-08-19T11:46:33;27.80;99.90
5697;DHT22;2873;50.966;7.210;2022-08-19T11:49:00;27.90;99.90
5697;DHT22;2873;50.966;7.210;2022-08-19T11:51:27;28.10;99.90
5697;DHT22;2873;50.966;7.210;2022-08-19T11:53:57;28.30;99.90
5697;DHT22;2873;50.966;7.210;2022-08-19T11:56:24;28.30;99.90
5697;DHT22;2873;50.966;7.210;2022-08-19T11:58:53;28.50;99.90
5697;DHT22;2873;50.966;7.210;2022-08-19T12:01:21;28.40;99.90
5697;DHT22;2873;50.966;7.210;2022-08-19T12:03:48;28.70;99.90
5697;DHT22;2873;50.966;7.210;2022-08-19T12:06:24;28.60;99.90
5697;DHT22;2873;50.966;7.210;2022-08-19T12:08:51;28.90;99.90
5697;DHT22;2873;50.966;7.210;2022-08-19T12:11:17;29.00;99.90
5697;DHT22;2873;50.966;7.210;2022-08-19T12:13:43;29.00;99.90
5697;DHT22;2873;50.966;7.210;2022-08-19T12:16:19;29.10;99.90
5697;DHT22;2873;50.966;7.210;2022-08-19T12:18:45;29.10;99.90
5697;DHT22;2873;50.966;7.210;2022-08-19T12:21:23;29.50;99.90
5697;DHT22;2873;50.966;7.210;2022-08-19T12:23:50;29.80;99.90
5697;DHT22;2873;50.966;7.210;2022-08-19T12:26:17;30.10;99.90
5697;DHT22;2873;50.966;7.210;2022-08-19T12:28:44;30.40;99.90
5697;DHT22;2873;50.966;7.210;2022-08-19T12:31:10;30.80;99.90
5697;DHT22;2873;50.966;7.210;2022-08-19T12:33:40;31.20;99.90
5697;DHT22;2873;50.966;7.210;2022-08-19T12:36:08;31.50;99.90
5697;DHT22;2873;50.966;7.210;2022-08-19T12:38:35;31.90;99.90
5697;DHT22;2873;50.966;7.210;2022-08-19T12:41:01;32.20;99.90
5697;DHT22;2873;50.966;7.210;2022-08-19T12:43:30;32.50;99.90
5697;DHT22;2873;50.966;7.210;2022-08-19T12:45:56;32.80;99.90
5697;DHT22;2873;50.966;7.210;2022-08-19T12:48:22;33.10;99.90
5697;DHT22;2873;50.966;7.210;2022-08-19T12:50:48;33.20;99.90
5697;DHT22;2873;50.966;7.210;2022-08-19T12:53:14;33.50;99.90
5697;DHT22;2873;50.966;7.210;2022-08-19T12:55:41;33.60;99.90
5697;DHT22;2873;50.966;7.210;2022-08-19T12:58:08;33.20;99.90
5697;DHT22;2873;50.966;7.210;2022-08-19T13:00:34;33.10;99.90
5697;DHT22;2873;50.966;7.210;2022-08-19T13:03:00;33.30;99.90
5697;DHT22;2873;50.966;7.210;2022-08-19T13:05:30;33.60;99.90
5697;DHT22;2873;50.966;7.210;2022-08-19T13:07:58;34.00;99.90
5697;DHT22;2873;50.966;7.210;2022-08-19T13:10:30;34.50;99.90
5697;DHT22;2873;50.966;7.210;2022-08-19T13:13:01;35.00;99.90
5697;DHT22;2873;50.966;7.210;2022-08-19T13:15:27;35.00;99.10
5697;DHT22;2873;50.966;7.210;2022-08-19T13:17:55;35.60;99.00
5697;DHT22;2873;50.966;7.210;2022-08-19T13:20:21;36.10;96.70
5697;DHT22;2873;50.966;7.210;2022-08-19T13:22:47;36.40;94.70
5697;DHT22;2873;50.966;7.210;2022-08-19T13:25:14;37.40;93.30
5697;DHT22;2873;50.966;7.210;2022-08-19T13:27:42;37.80;92.50
5697;DHT22;2873;50.966;7.210;2022-08-19T13:30:10;37.90;92.60
5697;DHT22;2873;50.966;7.210;2022-08-19T13:32:54;38.40;92.10
5697;DHT22;2873;50.966;7.210;2022-08-19T13:35:50;38.40;92.20
5697;DHT22;2873;50.966;7.210;2022-08-19T13:38:19;38.60;92.30
5697;DHT22;2873;50.966;7.210;2022-08-19T13:40:46;38.00;92.30
5697;DHT22;2873;50.966;7.210;2022-08-19T13:43:12;37.80;92.80
5697;DHT22;2873;50.966;7.210;2022-08-19T13:45:39;37.80;92.60
5697;DHT22;2873;50.966;7.210;2022-08-19T13:48:06;37.90;92.50
5697;DHT22;2873;50.966;7.210;2022-08-19T13:50:34;37.90;92.80
5697;DHT22;2873;50.966;7.210;2022-08-19T13:53:01;37.90;92.60
5697;DHT22;2873;50.966;7.210;2022-08-19T13:55:27;38.10;91.00
5697;DHT22;2873;50.966;7.210;2022-08-19T13:57:55;37.90;90.60
5697;DHT22;2873;50.966;7.210;2022-08-19T14:00:22;38.00;90.60
5697;DHT22;2873;50.966;7.210;2022-08-19T14:02:52;37.80;90.60
5697;DHT22;2873;50.966;7.210;2022-08-19T14:05:18;37.90;91.10
5697;DHT22;2873;50.966;7.210;2022-08-19T14:07:43;37.40;90.50
5697;DHT22;2873;50.966;7.210;2022-08-19T14:10:11;37.10;91.00
5697;DHT22;2873;50.966;7.210;2022-08-19T14:12:38;36.60;90.20
5697;DHT22;2873;50.966;7.210;2022-08-19T14:15:05;36.50;90.40
5697;DHT22;2873;50.966;7.210;2022-08-19T14:17:31;36.00;90.50
5697;DHT22;2873;50.966;7.210;2022-08-19T14:20:02;35.10;90.70
5697;DHT22;2873;50.966;7.210;2022-08-19T14:22:30;34.60;90.90
5697;DHT22;2873;50.966;7.210;2022-08-19T14:24:56;34.90;91.60
5697;DHT22;2873;50.966;7.210;2022-08-19T14:27:22;34.70;91.60
5697;DHT22;2873;50.966;7.210;2022-08-19T14:29:50;34.70;91.30
5697;DHT22;2873;50.966;7.210;2022-08-19T14:32:16;34.40;91.50
5697;DHT22;2873;50.966;7.210;2022-08-19T14:34:42;34.40;91.60
5697;DHT22;2873;50.966;7.210;2022-08-19T14:37:12;34.00;91.50
5697;DHT22;2873;50.966;7.210;2022-08-19T14:39:40;33.60;92.30
5697;DHT22;2873;50.966;7.210;2022-08-19T14:42:10;33.40;92.30
5697;DHT22;2873;50.966;7.210;2022-08-19T14:44:36;33.20;92.60
5697;DHT22;2873;50.966;7.210;2022-08-19T14:47:02;33.10;92.50
5697;DHT22;2873;50.966;7.210;2022-08-19T14:49:27;32.90;92.80
5697;DHT22;2873;50.966;7.210;2022-08-19T14:51:53;32.90;92.80
5697;DHT22;2873;50.966;7.210;2022-08-19T14:54:19;32.40;92.50
5697;DHT22;2873;50.966;7.210;2022-08-19T14:56:45;32.60;93.20
5697;DHT22;2873;50.966;7.210;2022-08-19T14:59:10;32.50;93.20
5697;DHT22;2873;50.966;7.210;2022-08-19T15:01:36;32.40;93.10
5697;DHT22;2873;50.966;7.210;2022-08-19T15:04:02;32.30;92.80
5697;DHT22;2873;50.966;7.210;2022-08-19T15:06:28;32.10;92.60
5697;DHT22;2873;50.966;7.210;2022-08-19T15:08:54;32.00;92.90
5697;DHT22;2873;50.966;7.210;2022-08-19T15:11:23;31.90;92.70
5697;DHT22;2873;50.966;7.210;2022-08-19T15:13:49;31.70;92.80
5697;DHT22;2873;50.966;7.210;2022-08-19T15:16:16;31.50;93.30
5697;DHT22;2873;50.966;7.210;2022-08-19T15:18:43;31.30;93.80
5697;DHT22;2873;50.966;7.210;2022-08-19T15:21:11;31.10;94.20
5697;DHT22;2873;50.966;7.210;2022-08-19T15:23:40;31.00;94.10
5697;DHT22;2873;50.966;7.210;2022-08-19T15:26:06;30.80;94.30
5697;DHT22;2873;50.966;7.210;2022-08-19T15:28:33;30.80;94.60
5697;DHT22;2873;50.966;7.210;2022-08-19T15:30:59;30.80;94.70
5697;DHT22;2873;50.966;7.210;2022-08-19T15:33:26;30.80;94.70
5697;DHT22;2873;50.966;7.210;2022-08-19T15:35:52;30.70;94.20
5697;DHT22;2873;50.966;7.210;2022-08-19T15:38:19;30.60;94.10
5697;DHT22;2873;50.966;7.210;2022-08-19T15:40:48;30.60;94.00
5697;DHT22;2873;50.966;7.210;2022-08-19T15:43:17;30.70;94.20
5697;DHT22;2873;50.966;7.210;2022-08-19T15:45:44;30.50;94.10
5697;DHT22;2873;50.966;7.210;2022-08-19T15:48:10;30.60;94.10
5697;DHT22;2873;50.966;7.210;2022-08-19T15:50:35;30.50;94.10
5697;DHT22;2873;50.966;7.210;2022-08-19T15:53:05;30.60;94.10
5697;DHT22;2873;50.966;7.210;2022-08-19T15:55:33;30.50;94.20
5697;DHT22;2873;50.966;7.210;2022-08-19T16:00:44;30.80;94.70
5697;DHT22;2873;50.966;7.210;2022-08-19T16:03:28;31.00;95.10
5697;DHT22;2873;50.966;7.210;2022-08-19T16:06:12;30.90;93.40
5697;DHT22;2873;50.966;7.210;2022-08-19T16:08:54;30.70;93.10
5697;DHT22;2873;50.966;7.210;2022-08-19T16:11:21;30.40;93.10
5697;DHT22;2873;50.966;7.210;2022-08-19T16:13:48;30.30;93.20
5697;DHT22;2873;50.966;7.210;2022-08-19T16:16:21;30.30;93.40
5697;DHT22;2873;50.966;7.210;2022-08-19T16:18:49;30.40;93.30
5697;DHT22;2873;50.966;7.210;2022-08-19T16:21:18;30.30;93.10
5697;DHT22;2873;50.966;7.210;2022-08-19T16:23:45;30.30;93.20
5697;DHT22;2873;50.966;7.210;2022-08-19T16:26:12;30.50;93.70